Eko 4 — SVAR8 — position and weather

sailwx.info

Track history (hours):
 
Tides and Currents Weather Stations Pressure Air Temp Water Temp Dewpoint Dewpoint Depression Visibility Wind Speed Wind Dir Waves Ship Positions

Eko 4

Last reported at 2014-Nov-25 19:32 UTC. Time now 2014-Nov-26 02:50 UTC.
Position N 38°02' E 023°36'.

Length 88 m; draft 5 m.

Type: Ship (hazmat cat A). MMSI: 240912000.

Date/timePositionNaut miles runAvg speedWind from/ knotsBaromVisibWave heightAir tempDewpointWater temp
2014-Nov-25 19:32N 38°02' E 023°36'0 0.0
2014-Nov-25 15:33N 38°02' E 023°36'0 0.0
2014-Nov-25 14:33N 38°02' E 023°36'0 0.0
2014-Nov-25 13:33N 38°02' E 023°36'0 0.0
2014-Nov-25 12:34N 38°02' E 023°36'0 0.0
2014-Nov-25 11:34N 38°02' E 023°36'0 0.0
2014-Nov-25 10:33N 38°02' E 023°36'1 1.3
2014-Nov-25 09:33N 38°01' E 023°34'5 5.3
2014-Nov-25 08:33N 37°56' E 023°35'2 1.8
2014-Nov-25 07:34N 37°54' E 023°36'2 2.1
2014-Nov-25 06:34N 37°53' E 023°38'9 8.5
2014-Nov-25 05:33N 37°45' E 023°43'18 9.0
2014-Nov-25 03:33N 37°36' E 024°03'1410.8
2014-Nov-25 02:15N 37°43' E 024°18'1111.2
2014-Nov-25 01:15N 37°51' E 024°29'  
2014-Nov-20 22:32N 37°53' E 024°32'20 9.1
2014-Nov-20 20:19N 37°40' E 024°12'7 8.7
2014-Nov-20 19:32N 37°36' E 024°05'10 9.4
2014-Nov-20 18:29N 37°37' E 023°53'9 9.8
2014-Nov-20 17:33N 37°40' E 023°42'1010.2
2014-Nov-20 16:34N 37°50' E 023°37'8 8.4
2014-Nov-20 15:34N 37°57' E 023°33'4 4.1
2014-Nov-20 14:30N 38°02' E 023°31'0 0.0
2014-Nov-20 13:33N 38°02' E 023°31'0 0.0
2014-Nov-20 12:33N 38°02' E 023°31'0 0.0
2014-Nov-20 11:33N 38°02' E 023°31'0 0.0
2014-Nov-20 10:27N 38°02' E 023°31'1 0.8
2014-Nov-20 09:27N 38°02' E 023°31'0 0.0
2014-Nov-20 08:30N 38°02' E 023°31'0 0.0
2014-Nov-20 01:15N 38°02' E 023°31'0 0.0
2014-Nov-20 00:33N 38°02' E 023°31'0 0.0
2014-Nov-19 23:33N 38°02' E 023°31'0 0.0
2014-Nov-19 22:33N 38°02' E 023°31'0 0.0
2014-Nov-19 21:33N 38°02' E 023°31'0 0.0
2014-Nov-19 20:33N 38°02' E 023°31'0 0.0
2014-Nov-19 19:33N 38°02' E 023°31'0 0.0
2014-Nov-19 18:30N 38°02' E 023°31'0 0.0
2014-Nov-19 17:33N 38°02' E 023°31'0 0.0
2014-Nov-19 16:33N 38°02' E 023°31'0 0.0
2014-Nov-19 15:30N 38°02' E 023°31'0 0.0
2014-Nov-19 14:33N 38°02' E 023°31'0 0.1
2014-Nov-19 13:33N 38°02' E 023°30'1 1.3
2014-Nov-19 12:31N 38°01' E 023°32'0 0.0
2014-Nov-19 11:31N 38°01' E 023°32'0 0.4
2014-Nov-19 10:33N 38°01' E 023°32'7 6.8
2014-Nov-19 09:33N 37°55' E 023°37'10 9.8
2014-Nov-19 08:33N 37°46' E 023°42'10 9.5
2014-Nov-19 07:32N 37°39' E 023°50'11 9.5
2014-Nov-19 06:20N 37°34' E 024°03'8 8.9
2014-Nov-19 05:24N 37°39' E 024°11'8 9.4
2014-Nov-19 04:31N 37°45' E 024°18'1010.2
2014-Nov-19 03:33N 37°51' E 024°28'9 9.4
2014-Nov-19 02:33N 37°57' E 024°37'55 9.2
2014-Nov-18 20:33N 38°47' E 024°06'  
2014-Nov-15 21:33N 37°54' E 024°33'9 8.9
2014-Nov-15 20:30N 37°48' E 024°24'  
Track history (hours):
 
Tides and Currents Weather Stations Pressure Air Temp Water Temp Dewpoint Dewpoint Depression Visibility Wind Speed Wind Dir Waves Ship Positions

Eko 4

Last reported at 2014-Nov-25 19:32 UTC. Time now 2014-Nov-26 02:50 UTC.
Position N 38°02' E 023°36'.

Length 88 m; draft 5 m.

Type: Ship (hazmat cat A). MMSI: 240912000.

Date/timePositionNaut miles runAvg speedWind from/ knotsBaromVisibWave heightAir tempDewpointWater temp
2014-Nov-25 19:32N 38°02' E 023°36'0 0.0
2014-Nov-25 15:33N 38°02' E 023°36'0 0.0
2014-Nov-25 14:33N 38°02' E 023°36'0 0.0
2014-Nov-25 13:33N 38°02' E 023°36'0 0.0
2014-Nov-25 12:34N 38°02' E 023°36'0 0.0
2014-Nov-25 11:34N 38°02' E 023°36'0 0.0
2014-Nov-25 10:33N 38°02' E 023°36'1 1.3
2014-Nov-25 09:33N 38°01' E 023°34'5 5.3
2014-Nov-25 08:33N 37°56' E 023°35'2 1.8
2014-Nov-25 07:34N 37°54' E 023°36'2 2.1
2014-Nov-25 06:34N 37°53' E 023°38'9 8.5
2014-Nov-25 05:33N 37°45' E 023°43'18 9.0
2014-Nov-25 03:33N 37°36' E 024°03'1410.8
2014-Nov-25 02:15N 37°43' E 024°18'1111.2
2014-Nov-25 01:15N 37°51' E 024°29'  
2014-Nov-20 22:32N 37°53' E 024°32'20 9.1
2014-Nov-20 20:19N 37°40' E 024°12'7 8.7
2014-Nov-20 19:32N 37°36' E 024°05'10 9.4
2014-Nov-20 18:29N 37°37' E 023°53'9 9.8
2014-Nov-20 17:33N 37°40' E 023°42'1010.2
2014-Nov-20 16:34N 37°50' E 023°37'8 8.4
2014-Nov-20 15:34N 37°57' E 023°33'4 4.1
2014-Nov-20 14:30N 38°02' E 023°31'0 0.0
2014-Nov-20 13:33N 38°02' E 023°31'0 0.0
2014-Nov-20 12:33N 38°02' E 023°31'0 0.0
2014-Nov-20 11:33N 38°02' E 023°31'0 0.0
2014-Nov-20 10:27N 38°02' E 023°31'1 0.8
2014-Nov-20 09:27N 38°02' E 023°31'0 0.0
2014-Nov-20 08:30N 38°02' E 023°31'0 0.0
2014-Nov-20 01:15N 38°02' E 023°31'0 0.0
2014-Nov-20 00:33N 38°02' E 023°31'0 0.0
2014-Nov-19 23:33N 38°02' E 023°31'0 0.0
2014-Nov-19 22:33N 38°02' E 023°31'0 0.0
2014-Nov-19 21:33N 38°02' E 023°31'0 0.0
2014-Nov-19 20:33N 38°02' E 023°31'0 0.0
2014-Nov-19 19:33N 38°02' E 023°31'0 0.0
2014-Nov-19 18:30N 38°02' E 023°31'0 0.0
2014-Nov-19 17:33N 38°02' E 023°31'0 0.0
2014-Nov-19 16:33N 38°02' E 023°31'0 0.0
2014-Nov-19 15:30N 38°02' E 023°31'0 0.0
2014-Nov-19 14:33N 38°02' E 023°31'0 0.1
2014-Nov-19 13:33N 38°02' E 023°30'1 1.3
2014-Nov-19 12:31N 38°01' E 023°32'0 0.0
2014-Nov-19 11:31N 38°01' E 023°32'0 0.4
2014-Nov-19 10:33N 38°01' E 023°32'7 6.8
2014-Nov-19 09:33N 37°55' E 023°37'10 9.8
2014-Nov-19 08:33N 37°46' E 023°42'10 9.5
2014-Nov-19 07:32N 37°39' E 023°50'11 9.5
2014-Nov-19 06:20N 37°34' E 024°03'8 8.9
2014-Nov-19 05:24N 37°39' E 024°11'8 9.4
2014-Nov-19 04:31N 37°45' E 024°18'1010.2
2014-Nov-19 03:33N 37°51' E 024°28'9 9.4
2014-Nov-19 02:33N 37°57' E 024°37'55 9.2
2014-Nov-18 20:33N 38°47' E 024°06'  
2014-Nov-15 21:33N 37°54' E 024°33'9 8.9
2014-Nov-15 20:30N 37°48' E 024°24'  

Dump ship's entire track history